sensor_id;sensor_type;location;lat;lon;timestamp;pressure;altitude;pressure_sealevel;temperature;humidity
65666;BME280;52365;47.464;18.976;2023-04-28T00:00:16;100309.03;;;5.50;65.90
65666;BME280;52365;47.464;18.976;2023-04-28T00:00:37;100294.66;;;5.40;65.91
65666;BME280;52365;47.464;18.976;2023-04-28T00:00:58;100289.34;;;5.37;66.15
65666;BME280;52365;47.464;18.976;2023-04-28T00:01:14;100296.62;;;5.36;66.16
65666;BME280;52365;47.464;18.976;2023-04-28T00:01:35;100300.69;;;5.44;66.16
65666;BME280;52365;47.464;18.976;2023-04-28T00:01:57;100299.72;;;5.58;65.85
65666;BME280;52365;47.464;18.976;2023-04-28T00:02:18;100293.25;;;5.55;65.60
65666;BME280;52365;47.464;18.976;2023-04-28T00:02:39;100294.53;;;5.47;65.63
65666;BME280;52365;47.464;18.976;2023-04-28T00:03:00;100299.34;;;5.33;65.99
65666;BME280;52365;47.464;18.976;2023-04-28T00:03:16;100300.94;;;5.26;66.43
65666;BME280;52365;47.464;18.976;2023-04-28T00:03:37;100297.50;;;5.26;66.54
65666;BME280;52365;47.464;18.976;2023-04-28T00:03:58;100296.88;;;5.18;66.79
65666;BME280;52365;47.464;18.976;2023-04-28T00:04:20;100295.78;;;5.12;67.03
65666;BME280;52365;47.464;18.976;2023-04-28T00:04:41;100293.88;;;5.13;66.99
65666;BME280;52365;47.464;18.976;2023-04-28T00:05:02;100296.91;;;5.15;66.94
65666;BME280;52365;47.464;18.976;2023-04-28T00:05:23;100296.72;;;5.29;66.80
65666;BME280;52365;47.464;18.976;2023-04-28T00:05:44;100302.25;;;5.42;66.44
65666;BME280;52365;47.464;18.976;2023-04-28T00:06:06;100294.59;;;5.44;66.07
65666;BME280;52365;47.464;18.976;2023-04-28T00:06:22;100297.16;;;5.51;65.81
65666;BME280;52365;47.464;18.976;2023-04-28T00:06:43;100293.69;;;5.54;65.61
65666;BME280;52365;47.464;18.976;2023-04-28T00:07:05;100302.84;;;5.53;65.39
65666;BME280;52365;47.464;18.976;2023-04-28T00:07:26;100295.47;;;5.61;65.20
65666;BME280;52365;47.464;18.976;2023-04-28T00:07:42;100295.75;;;5.66;64.93
65666;BME280;52365;47.464;18.976;2023-04-28T00:08:04;100299.59;;;5.65;64.85
65666;BME280;52365;47.464;18.976;2023-04-28T00:08:25;100297.09;;;5.54;65.00
65666;BME280;52365;47.464;18.976;2023-04-28T00:08:46;100306.03;;;5.44;65.28
65666;BME280;52365;47.464;18.976;2023-04-28T00:09:08;100296.72;;;5.29;65.93
65666;BME280;52365;47.464;18.976;2023-04-28T00:09:32;100299.94;;;5.44;65.76
65666;BME280;52365;47.464;18.976;2023-04-28T00:09:53;100306.59;;;5.82;65.14
65666;BME280;52365;47.464;18.976;2023-04-28T00:10:14;100301.94;;;6.10;64.18
65666;BME280;52365;47.464;18.976;2023-04-28T00:10:35;100299.88;;;5.98;63.65
65666;BME280;52365;47.464;18.976;2023-04-28T00:10:56;100308.88;;;6.08;63.62
65666;BME280;52365;47.464;18.976;2023-04-28T00:11:17;100301.50;;;6.15;63.34
65666;BME280;52365;47.464;18.976;2023-04-28T00:11:38;100303.56;;;6.27;62.96
65666;BME280;52365;47.464;18.976;2023-04-28T00:11:59;100310.66;;;6.38;62.29
65666;BME280;52365;47.464;18.976;2023-04-28T00:12:21;100303.91;;;5.82;62.64
65666;BME280;52365;47.464;18.976;2023-04-28T00:12:42;100304.94;;;5.65;63.42
65666;BME280;52365;47.464;18.976;2023-04-28T00:13:03;100304.66;;;5.83;63.52
65666;BME280;52365;47.464;18.976;2023-04-28T00:13:24;100304.75;;;5.52;63.28
65666;BME280;52365;47.464;18.976;2023-04-28T00:13:45;100306.25;;;5.80;63.17
65666;BME280;52365;47.464;18.976;2023-04-28T00:14:06;100304.38;;;5.77;62.41
65666;BME280;52365;47.464;18.976;2023-04-28T00:14:22;100301.25;;;5.82;62.39
65666;BME280;52365;47.464;18.976;2023-04-28T00:14:43;100307.66;;;5.89;62.26
65666;BME280;52365;47.464;18.976;2023-04-28T00:15:04;100299.62;;;5.89;62.08
65666;BME280;52365;47.464;18.976;2023-04-28T00:15:25;100312.78;;;6.03;61.87
65666;BME280;52365;47.464;18.976;2023-04-28T00:15:48;100303.25;;;6.02;61.71
65666;BME280;52365;47.464;18.976;2023-04-28T00:16:09;100306.19;;;5.84;61.96
65666;BME280;52365;47.464;18.976;2023-04-28T00:16:25;100308.47;;;5.86;62.19
65666;BME280;52365;47.464;18.976;2023-04-28T00:16:46;100309.88;;;5.94;62.13
65666;BME280;52365;47.464;18.976;2023-04-28T00:17:07;100304.47;;;5.97;61.95
65666;BME280;52365;47.464;18.976;2023-04-28T00:17:30;100308.56;;;5.78;61.79
65666;BME280;52365;47.464;18.976;2023-04-28T00:17:51;100308.66;;;5.48;62.37
65666;BME280;52365;47.464;18.976;2023-04-28T00:18:13;100308.03;;;5.40;63.03
65666;BME280;52365;47.464;18.976;2023-04-28T00:18:33;100306.44;;;5.43;63.24
65666;BME280;52365;47.464;18.976;2023-04-28T00:18:55;100304.19;;;5.41;63.43
65666;BME280;52365;47.464;18.976;2023-04-28T00:19:16;100309.31;;;5.28;63.74
65666;BME280;52365;47.464;18.976;2023-04-28T00:19:37;100302.69;;;5.40;63.83
65666;BME280;52365;47.464;18.976;2023-04-28T00:19:58;100305.97;;;5.48;63.73
65666;BME280;52365;47.464;18.976;2023-04-28T00:20:19;100308.56;;;5.55;63.49
65666;BME280;52365;47.464;18.976;2023-04-28T00:20:40;100301.94;;;5.63;63.29
65666;BME280;52365;47.464;18.976;2023-04-28T00:21:01;100308.91;;;5.57;63.43
65666;BME280;52365;47.464;18.976;2023-04-28T00:21:22;100303.53;;;5.57;63.41
65666;BME280;52365;47.464;18.976;2023-04-28T00:21:43;100314.00;;;5.48;63.81
65666;BME280;52365;47.464;18.976;2023-04-28T00:21:59;100308.31;;;5.46;64.01
65666;BME280;52365;47.464;18.976;2023-04-28T00:22:20;100311.97;;;5.55;63.87
65666;BME280;52365;47.464;18.976;2023-04-28T00:22:36;100305.47;;;5.56;63.79
65666;BME280;52365;47.464;18.976;2023-04-28T00:22:58;100305.09;;;5.58;63.67
65666;BME280;52365;47.464;18.976;2023-04-28T00:23:19;100310.53;;;5.51;63.56
65666;BME280;52365;47.464;18.976;2023-04-28T00:23:40;100308.09;;;5.60;63.54
65666;BME280;52365;47.464;18.976;2023-04-28T00:23:56;100307.75;;;5.58;63.42
65666;BME280;52365;47.464;18.976;2023-04-28T00:24:17;100305.78;;;5.62;63.35
65666;BME280;52365;47.464;18.976;2023-04-28T00:24:38;100305.78;;;5.62;63.22
65666;BME280;52365;47.464;18.976;2023-04-28T00:24:59;100304.06;;;5.48;63.34
65666;BME280;52365;47.464;18.976;2023-04-28T00:25:20;100298.88;;;5.38;63.55
65666;BME280;52365;47.464;18.976;2023-04-28T00:25:41;100302.47;;;5.27;63.85
65666;BME280;52365;47.464;18.976;2023-04-28T00:26:02;100306.13;;;5.10;64.45
65666;BME280;52365;47.464;18.976;2023-04-28T00:26:23;100305.69;;;5.15;64.55
65666;BME280;52365;47.464;18.976;2023-04-28T00:26:44;100301.66;;;5.30;64.46
65666;BME280;52365;47.464;18.976;2023-04-28T00:27:05;100305.34;;;5.40;64.12
65666;BME280;52365;47.464;18.976;2023-04-28T00:27:27;100303.44;;;5.41;63.88
65666;BME280;52365;47.464;18.976;2023-04-28T00:27:48;100306.81;;;5.45;63.73
65666;BME280;52365;47.464;18.976;2023-04-28T00:28:04;100305.28;;;5.44;63.54
65666;BME280;52365;47.464;18.976;2023-04-28T00:28:25;100307.56;;;5.45;63.52
65666;BME280;52365;47.464;18.976;2023-04-28T00:28:46;100305.97;;;5.48;63.45
65666;BME280;52365;47.464;18.976;2023-04-28T00:29:07;100305.78;;;5.62;63.26
65666;BME280;52365;47.464;18.976;2023-04-28T00:29:28;100309.03;;;5.73;62.88
65666;BME280;52365;47.464;18.976;2023-04-28T00:29:44;100303.44;;;5.88;62.49
65666;BME280;52365;47.464;18.976;2023-04-28T00:30:06;100305.78;;;6.09;61.84
65666;BME280;52365;47.464;18.976;2023-04-28T00:30:22;100305.56;;;6.23;61.03
65666;BME280;52365;47.464;18.976;2023-04-28T00:30:39;100309.31;;;6.26;60.84
65666;BME280;52365;47.464;18.976;2023-04-28T00:31:01;100306.75;;;6.42;60.40
65666;BME280;52365;47.464;18.976;2023-04-28T00:31:22;100309.06;;;6.40;59.93
65666;BME280;52365;47.464;18.976;2023-04-28T00:31:43;100308.25;;;6.00;60.41
65666;BME280;52365;47.464;18.976;2023-04-28T00:32:04;100313.44;;;5.60;61.17
65666;BME280;52365;47.464;18.976;2023-04-28T00:32:26;100306.22;;;5.30;61.92
65666;BME280;52365;47.464;18.976;2023-04-28T00:32:47;100301.06;;;5.19;62.58
65666;BME280;52365;47.464;18.976;2023-04-28T00:33:08;100296.25;;;5.07;63.07
65666;BME280;52365;47.464;18.976;2023-04-28T00:33:29;100306.84;;;5.14;63.35
65666;BME280;52365;47.464;18.976;2023-04-28T00:33:50;100308.78;;;5.14;63.44
65666;BME280;52365;47.464;18.976;2023-04-28T00:34:11;100310.72;;;5.10;63.72
65666;BME280;52365;47.464;18.976;2023-04-28T00:34:34;100304.94;;;5.15;63.72
65666;BME280;52365;47.464;18.976;2023-04-28T00:34:57;100304.87;;;5.18;63.77
65666;BME280;52365;47.464;18.976;2023-04-28T00:35:18;100307.00;;;5.30;63.55
65666;BME280;52365;47.464;18.976;2023-04-28T00:35:39;100301.31;;;5.28;63.44
65666;BME280;52365;47.464;18.976;2023-04-28T00:36:01;100308.28;;;5.22;63.82
65666;BME280;52365;47.464;18.976;2023-04-28T00:36:22;100300.53;;;5.01;64.75
65666;BME280;52365;47.464;18.976;2023-04-28T00:36:43;100299.81;;;4.97;65.28
65666;BME280;52365;47.464;18.976;2023-04-28T00:37:04;100302.47;;;5.00;65.32
65666;BME280;52365;47.464;18.976;2023-04-28T00:37:25;100303.12;;;5.04;65.24
65666;BME280;52365;47.464;18.976;2023-04-28T00:37:46;100300.34;;;5.15;65.04
65666;BME280;52365;47.464;18.976;2023-04-28T00:38:02;100307.56;;;5.18;64.82
65666;BME280;52365;47.464;18.976;2023-04-28T00:38:23;100304.94;;;5.15;64.76
65666;BME280;52365;47.464;18.976;2023-04-28T00:38:45;100303.84;;;5.09;65.11
65666;BME280;52365;47.464;18.976;2023-04-28T00:39:06;100300.09;;;5.06;65.30
65666;BME280;52365;47.464;18.976;2023-04-28T00:39:27;100301.25;;;5.05;65.16
65666;BME280;52365;47.464;18.976;2023-04-28T00:39:48;100310.81;;;5.02;65.28
65666;BME280;52365;47.464;18.976;2023-04-28T00:40:14;100296.59;;;5.09;65.22
65666;BME280;52365;47.464;18.976;2023-04-28T00:40:34;100304.53;;;5.16;65.07
65666;BME280;52365;47.464;18.976;2023-04-28T00:40:55;100298.69;;;5.25;64.79
65666;BME280;52365;47.464;18.976;2023-04-28T00:41:16;100302.06;;;5.29;64.54
65666;BME280;52365;47.464;18.976;2023-04-28T00:41:37;100299.62;;;5.38;64.27
65666;BME280;52365;47.464;18.976;2023-04-28T00:41:58;100305.03;;;5.35;63.90
65666;BME280;52365;47.464;18.976;2023-04-28T00:42:19;100299.34;;;5.33;63.94
65666;BME280;52365;47.464;18.976;2023-04-28T00:42:40;100307.75;;;5.31;63.85
65666;BME280;52365;47.464;18.976;2023-04-28T00:43:01;100302.22;;;5.18;64.22
65666;BME280;52365;47.464;18.976;2023-04-28T00:43:22;100311.81;;;5.12;64.49
65666;BME280;52365;47.464;18.976;2023-04-28T00:43:47;100303.34;;;5.17;64.59
65666;BME280;52365;47.464;18.976;2023-04-28T00:44:08;100302.41;;;5.31;64.36
65666;BME280;52365;47.464;18.976;2023-04-28T00:44:29;100308.16;;;5.29;64.24
65666;BME280;52365;47.464;18.976;2023-04-28T00:44:45;100297.00;;;5.35;64.11
65666;BME280;52365;47.464;18.976;2023-04-28T00:45:01;100308.53;;;5.32;64.14
65666;BME280;52365;47.464;18.976;2023-04-28T00:45:25;100299.84;;;5.24;64.32
65666;BME280;52365;47.464;18.976;2023-04-28T00:45:50;100303.31;;;5.21;64.50
65666;BME280;52365;47.464;18.976;2023-04-28T00:46:21;100300.19;;;5.26;64.45
65666;BME280;52365;47.464;18.976;2023-04-28T00:46:45;100297.00;;;5.35;64.29
65666;BME280;52365;47.464;18.976;2023-04-28T00:47:09;100302.75;;;5.33;64.04
65666;BME280;52365;47.464;18.976;2023-04-28T00:47:35;100303.88;;;5.36;64.05
65666;BME280;52365;47.464;18.976;2023-04-28T00:47:58;100297.34;;;5.40;63.88
65666;BME280;52365;47.464;18.976;2023-04-28T00:48:19;100296.50;;;5.43;63.74
65666;BME280;52365;47.464;18.976;2023-04-28T00:48:40;100301.84;;;5.43;63.60
65666;BME280;52365;47.464;18.976;2023-04-28T00:49:02;100302.03;;;5.56;63.39
65666;BME280;52365;47.464;18.976;2023-04-28T00:49:24;100301.66;;;5.58;63.08
65666;BME280;52365;47.464;18.976;2023-04-28T00:49:46;100299.13;;;5.47;62.70
65666;BME280;52365;47.464;18.976;2023-04-28T00:50:09;100297.72;;;5.39;62.89
65666;BME280;52365;47.464;18.976;2023-04-28T00:50:30;100303.31;;;5.21;63.36
65666;BME280;52365;47.464;18.976;2023-04-28T00:50:51;100299.22;;;5.13;63.70
65666;BME280;52365;47.464;18.976;2023-04-28T00:51:12;100303.78;;;5.16;64.01
65666;BME280;52365;47.464;18.976;2023-04-28T00:51:33;100294.63;;;5.13;64.54
65666;BME280;52365;47.464;18.976;2023-04-28T00:51:54;100302.56;;;5.20;64.50
65666;BME280;52365;47.464;18.976;2023-04-28T00:52:15;100299.44;;;5.25;64.28
65666;BME280;52365;47.464;18.976;2023-04-28T00:52:37;100304.31;;;5.30;63.97
65666;BME280;52365;47.464;18.976;2023-04-28T00:52:59;100297.84;;;5.32;63.92
65666;BME280;52365;47.464;18.976;2023-04-28T00:53:20;100307.00;;;5.30;64.05
65666;BME280;52365;47.464;18.976;2023-04-28T00:53:36;100301.81;;;5.20;64.65
65666;BME280;52365;47.464;18.976;2023-04-28T00:53:58;100305.72;;;5.12;65.04
65666;BME280;52365;47.464;18.976;2023-04-28T00:54:19;100296.91;;;5.15;65.05
65666;BME280;52365;47.464;18.976;2023-04-28T00:54:36;100299.97;;;5.13;65.29
65666;BME280;52365;47.464;18.976;2023-04-28T00:54:57;100305.78;;;5.08;65.43
65666;BME280;52365;47.464;18.976;2023-04-28T00:55:14;100301.09;;;5.16;65.26
65666;BME280;52365;47.464;18.976;2023-04-28T00:55:37;100304.25;;;5.07;65.32
65666;BME280;52365;47.464;18.976;2023-04-28T00:55:58;100299.72;;;5.04;65.42
65666;BME280;52365;47.464;18.976;2023-04-28T00:56:19;100302.78;;;5.02;65.52
65666;BME280;52365;47.464;18.976;2023-04-28T00:56:41;100303.47;;;5.10;65.40
65666;BME280;52365;47.464;18.976;2023-04-28T00:57:03;100305.59;;;5.22;65.06
65666;BME280;52365;47.464;18.976;2023-04-28T00:57:24;100309.78;;;5.23;64.91
65666;BME280;52365;47.464;18.976;2023-04-28T00:57:45;100303.22;;;5.28;64.76
65666;BME280;52365;47.464;18.976;2023-04-28T00:58:07;100305.84;;;5.32;64.49
65666;BME280;52365;47.464;18.976;2023-04-28T00:58:29;100311.50;;;5.37;64.26
65666;BME280;52365;47.464;18.976;2023-04-28T00:58:50;100299.22;;;5.40;64.06
65666;BME280;52365;47.464;18.976;2023-04-28T00:59:06;100298.72;;;5.48;63.79
65666;BME280;52365;47.464;18.976;2023-04-28T00:59:28;100303.31;;;5.48;63.65
65666;BME280;52365;47.464;18.976;2023-04-28T00:59:49;100312.19;;;5.41;63.60
65666;BME280;52365;47.464;18.976;2023-04-28T01:00:10;100307.69;;;5.35;63.64
65666;BME280;52365;47.464;18.976;2023-04-28T01:00:26;100310.22;;;5.45;63.59
65666;BME280;52365;47.464;18.976;2023-04-28T01:00:47;100303.00;;;5.42;63.43
65666;BME280;52365;47.464;18.976;2023-04-28T01:01:09;100311.44;;;5.41;63.27
65666;BME280;52365;47.464;18.976;2023-04-28T01:01:31;100308.41;;;5.39;63.31
65666;BME280;52365;47.464;18.976;2023-04-28T01:01:52;100309.31;;;5.28;63.40
65666;BME280;52365;47.464;18.976;2023-04-28T01:02:13;100304.06;;;5.21;63.91
65666;BME280;52365;47.464;18.976;2023-04-28T01:02:37;100311.75;;;5.19;64.26
65666;BME280;52365;47.464;18.976;2023-04-28T01:02:58;100311.06;;;5.39;64.07
65666;BME280;52365;47.464;18.976;2023-04-28T01:03:15;100312.25;;;5.38;63.79
65666;BME280;52365;47.464;18.976;2023-04-28T01:03:37;100309.62;;;5.34;63.79
65666;BME280;52365;47.464;18.976;2023-04-28T01:03:59;100311.91;;;5.36;63.72
65666;BME280;52365;47.464;18.976;2023-04-28T01:04:20;100314.16;;;5.37;63.63
65666;BME280;52365;47.464;18.976;2023-04-28T01:04:42;100313.28;;;5.44;63.48
65666;BME280;52365;47.464;18.976;2023-04-28T01:05:03;100309.41;;;5.48;63.39
65666;BME280;52365;47.464;18.976;2023-04-28T01:05:25;100306.03;;;5.44;63.22
65666;BME280;52365;47.464;18.976;2023-04-28T01:05:47;100313.28;;;5.44;63.18
65666;BME280;52365;47.464;18.976;2023-04-28T01:06:08;100306.62;;;5.55;63.07
65666;BME280;52365;47.464;18.976;2023-04-28T01:06:25;100319.25;;;5.55;62.83
65666;BME280;52365;47.464;18.976;2023-04-28T01:06:48;100313.16;;;5.54;62.79
65666;BME280;52365;47.464;18.976;2023-04-28T01:07:09;100309.56;;;5.65;62.62
65666;BME280;52365;47.464;18.976;2023-04-28T01:07:25;100318.84;;;5.56;62.64
65666;BME280;52365;47.464;18.976;2023-04-28T01:07:46;100321.16;;;5.54;62.70
65666;BME280;52365;47.464;18.976;2023-04-28T01:08:02;100309.78;;;5.50;62.88
65666;BME280;52365;47.464;18.976;2023-04-28T01:08:29;100305.97;;;5.48;62.91
65666;BME280;52365;47.464;18.976;2023-04-28T01:08:50;100314.63;;;5.32;63.54
65666;BME280;52365;47.464;18.976;2023-04-28T01:09:06;100314.72;;;5.25;63.96
65666;BME280;52365;47.464;18.976;2023-04-28T01:09:28;100312.50;;;5.20;64.14
65666;BME280;52365;47.464;18.976;2023-04-28T01:09:49;100313.19;;;5.24;64.16
65666;BME280;52365;47.464;18.976;2023-04-28T01:10:06;100310.12;;;5.25;64.21
65666;BME280;52365;47.464;18.976;2023-04-28T01:10:27;100303.97;;;5.28;64.17
65666;BME280;52365;47.464;18.976;2023-04-28T01:10:48;100307.09;;;5.23;64.22
65666;BME280;52365;47.464;18.976;2023-04-28T01:11:09;100310.94;;;5.22;64.21
65666;BME280;52365;47.464;18.976;2023-04-28T01:11:33;100307.16;;;5.20;64.30
65666;BME280;52365;47.464;18.976;2023-04-28T01:11:49;100309.41;;;5.21;64.33
65666;BME280;52365;47.464;18.976;2023-04-28T01:12:10;100312.13;;;5.18;64.38
65666;BME280;52365;47.464;18.976;2023-04-28T01:12:31;100313.91;;;5.01;64.84
65666;BME280;52365;47.464;18.976;2023-04-28T01:12:52;100314.72;;;4.94;65.35
65666;BME280;52365;47.464;18.976;2023-04-28T01:13:13;100311.31;;;4.94;65.60
65666;BME280;52365;47.464;18.976;2023-04-28T01:13:34;100313.47;;;5.02;65.47
65666;BME280;52365;47.464;18.976;2023-04-28T01:13:51;100311.13;;;5.08;65.22
65666;BME280;52365;47.464;18.976;2023-04-28T01:14:07;100307.28;;;5.09;65.19
65666;BME280;52365;47.464;18.976;2023-04-28T01:14:23;100315.56;;;5.18;64.99
65666;BME280;52365;47.464;18.976;2023-04-28T01:14:44;100312.53;;;5.16;64.76
65666;BME280;52365;47.464;18.976;2023-04-28T01:15:09;100311.81;;;5.12;64.72
65666;BME280;52365;47.464;18.976;2023-04-28T01:15:32;100303.06;;;5.12;64.71
65666;BME280;52365;47.464;18.976;2023-04-28T01:15:54;100308.69;;;5.17;64.61
65666;BME280;52365;47.464;18.976;2023-04-28T01:16:16;100307.66;;;5.11;64.60
65666;BME280;52365;47.464;18.976;2023-04-28T01:16:37;100313.47;;;5.02;64.78
65666;BME280;52365;47.464;18.976;2023-04-28T01:16:58;100309.78;;;4.93;65.10
65666;BME280;52365;47.464;18.976;2023-04-28T01:17:19;100309.13;;;4.85;65.44
65666;BME280;52365;47.464;18.976;2023-04-28T01:17:41;100310.81;;;4.72;65.92
65666;BME280;52365;47.464;18.976;2023-04-28T01:17:57;100314.00;;;4.60;66.35
65666;BME280;52365;47.464;18.976;2023-04-28T01:18:18;100307.12;;;4.59;66.62
65666;BME280;52365;47.464;18.976;2023-04-28T01:18:45;100308.56;;;4.67;66.55
65666;BME280;52365;47.464;18.976;2023-04-28T01:19:07;100320.66;;;4.78;66.52
65666;BME280;52365;47.464;18.976;2023-04-28T01:19:31;100318.25;;;4.88;66.21
65666;BME280;52365;47.464;18.976;2023-04-28T01:19:47;100313.44;;;5.06;65.80
65666;BME280;52365;47.464;18.976;2023-04-28T01:20:09;100313.62;;;4.92;65.76
65666;BME280;52365;47.464;18.976;2023-04-28T01:20:30;100308.66;;;4.90;65.83
65666;BME280;52365;47.464;18.976;2023-04-28T01:20:51;100316.38;;;4.85;65.81
65666;BME280;52365;47.464;18.976;2023-04-28T01:21:12;100316.22;;;4.65;66.29
65666;BME280;52365;47.464;18.976;2023-04-28T01:21:33;100313.22;;;4.59;66.64
65666;BME280;52365;47.464;18.976;2023-04-28T01:21:54;100313.88;;;4.70;66.63
65666;BME280;52365;47.464;18.976;2023-04-28T01:22:15;100317.63;;;4.76;66.43
65666;BME280;52365;47.464;18.976;2023-04-28T01:22:36;100315.69;;;4.77;66.23
65666;BME280;52365;47.464;18.976;2023-04-28T01:22:57;100307.91;;;4.90;66.05
65666;BME280;52365;47.464;18.976;2023-04-28T01:23:19;100318.13;;;4.98;65.76
65666;BME280;52365;47.464;18.976;2023-04-28T01:23:40;100315.03;;;5.00;65.43
65666;BME280;52365;47.464;18.976;2023-04-28T01:24:01;100311.66;;;4.96;65.46
65666;BME280;52365;47.464;18.976;2023-04-28T01:24:22;100313.66;;;4.88;65.64
65666;BME280;52365;47.464;18.976;2023-04-28T01:24:43;100310.63;;;4.86;65.67
65666;BME280;52365;47.464;18.976;2023-04-28T01:25:04;100308.66;;;4.90;65.76
65666;BME280;52365;47.464;18.976;2023-04-28T01:25:20;100310.50;;;4.97;65.58
65666;BME280;52365;47.464;18.976;2023-04-28T01:25:36;100315.75;;;5.04;65.38
65666;BME280;52365;47.464;18.976;2023-04-28T01:25:57;100309.31;;;5.01;65.26
65666;BME280;52365;47.464;18.976;2023-04-28T01:26:18;100314.69;;;4.98;65.31
65666;BME280;52365;47.464;18.976;2023-04-28T01:26:39;100316.59;;;4.97;65.15
65666;BME280;52365;47.464;18.976;2023-04-28T01:26:55;100307.50;;;4.91;65.29
65666;BME280;52365;47.464;18.976;2023-04-28T01:27:11;100323.59;;;4.88;65.57
65666;BME280;52365;47.464;18.976;2023-04-28T01:27:32;100318.75;;;4.79;65.83
65666;BME280;52365;47.464;18.976;2023-04-28T01:27:53;100308.09;;;4.75;66.10
65666;BME280;52365;47.464;18.976;2023-04-28T01:28:14;100316.19;;;4.68;66.48
65666;BME280;52365;47.464;18.976;2023-04-28T01:28:35;100321.91;;;4.70;66.67
65666;BME280;52365;47.464;18.976;2023-04-28T01:28:56;100320.69;;;4.75;66.50
65666;BME280;52365;47.464;18.976;2023-04-28T01:29:17;100314.22;;;4.72;66.48
65666;BME280;52365;47.464;18.976;2023-04-28T01:29:38;100319.16;;;4.74;66.44
65666;BME280;52365;47.464;18.976;2023-04-28T01:29:59;100312.28;;;4.76;66.37
65666;BME280;52365;47.464;18.976;2023-04-28T01:30:20;100319.09;;;4.81;66.20
65666;BME280;52365;47.464;18.976;2023-04-28T01:30:41;100317.88;;;4.86;66.07
65666;BME280;52365;47.464;18.976;2023-04-28T01:31:02;100314.25;;;5.03;65.78
65666;BME280;52365;47.464;18.976;2023-04-28T01:31:23;100317.38;;;5.25;65.23
65666;BME280;52365;47.464;18.976;2023-04-28T01:31:45;100311.69;;;5.50;64.40
65666;BME280;52365;47.464;18.976;2023-04-28T01:32:06;100312.31;;;5.85;63.22
65666;BME280;52365;47.464;18.976;2023-04-28T01:32:27;100313.44;;;6.11;62.06
65666;BME280;52365;47.464;18.976;2023-04-28T01:32:48;100322.37;;;6.24;61.18
65666;BME280;52365;47.464;18.976;2023-04-28T01:33:09;100314.97;;;6.31;60.59
65666;BME280;52365;47.464;18.976;2023-04-28T01:33:30;100314.97;;;6.31;60.31
65666;BME280;52365;47.464;18.976;2023-04-28T01:33:51;100314.97;;;6.31;60.15
65666;BME280;52365;47.464;18.976;2023-04-28T01:34:12;100318.53;;;6.25;60.13
65666;BME280;52365;47.464;18.976;2023-04-28T01:34:33;100312.25;;;6.12;60.23
65666;BME280;52365;47.464;18.976;2023-04-28T01:34:49;100309.88;;;5.94;60.50
65666;BME280;52365;47.464;18.976;2023-04-28T01:35:06;100309.97;;;5.87;60.76
65666;BME280;52365;47.464;18.976;2023-04-28T01:35:27;100310.09;;;5.79;61.00
65666;BME280;52365;47.464;18.976;2023-04-28T01:35:48;100308.00;;;5.67;61.34
65666;BME280;52365;47.464;18.976;2023-04-28T01:36:09;100315.97;;;5.44;62.15
65666;BME280;52365;47.464;18.976;2023-04-28T01:36:30;100304.47;;;5.20;63.30
65666;BME280;52365;47.464;18.976;2023-04-28T01:36:52;100309.03;;;5.23;63.54
65666;BME280;52365;47.464;18.976;2023-04-28T01:37:13;100310.22;;;5.18;63.69
65666;BME280;52365;47.464;18.976;2023-04-28T01:37:34;100307.84;;;5.24;63.72
65666;BME280;52365;47.464;18.976;2023-04-28T01:37:55;100311.25;;;5.28;63.61
65666;BME280;52365;47.464;18.976;2023-04-28T01:38:11;100312.44;;;5.23;63.66
65666;BME280;52365;47.464;18.976;2023-04-28T01:38:32;100306.66;;;5.28;63.60
65666;BME280;52365;47.464;18.976;2023-04-28T01:38:54;100315.00;;;5.30;63.49
65666;BME280;52365;47.464;18.976;2023-04-28T01:39:10;100310.88;;;5.26;63.44
65666;BME280;52365;47.464;18.976;2023-04-28T01:39:31;100311.31;;;5.21;63.56
65666;BME280;52365;47.464;18.976;2023-04-28T01:39:47;100306.09;;;5.14;64.07
65666;BME280;52365;47.464;18.976;2023-04-28T01:40:08;100303.56;;;5.03;64.61
65666;BME280;52365;47.464;18.976;2023-04-28T01:40:30;100313.28;;;5.17;64.71
65666;BME280;52365;47.464;18.976;2023-04-28T01:40:53;100298.00;;;5.17;64.59
65666;BME280;52365;47.464;18.976;2023-04-28T01:41:14;100298.28;;;4.96;65.18
65666;BME280;52365;47.464;18.976;2023-04-28T01:41:35;100299.19;;;4.86;65.70
65666;BME280;52365;47.464;18.976;2023-04-28T01:41:56;100302.50;;;4.97;65.66
65666;BME280;52365;47.464;18.976;2023-04-28T01:42:12;100303.50;;;5.07;65.41
65666;BME280;52365;47.464;18.976;2023-04-28T01:42:33;100301.25;;;5.05;65.27
65666;BME280;52365;47.464;18.976;2023-04-28T01:42:49;100299.38;;;5.02;65.19
65666;BME280;52365;47.464;18.976;2023-04-28T01:43:06;100291.81;;;4.97;65.21
65666;BME280;52365;47.464;18.976;2023-04-28T01:43:27;100299.13;;;4.93;65.25
65666;BME280;52365;47.464;18.976;2023-04-28T01:43:49;100296.47;;;4.89;65.43
65666;BME280;52365;47.464;18.976;2023-04-28T01:44:10;100297.69;;;4.85;65.73
65666;BME280;52365;47.464;18.976;2023-04-28T01:44:32;100296.81;;;4.91;65.78
65666;BME280;52365;47.464;18.976;2023-04-28T01:44:54;100299.06;;;4.96;65.66
65666;BME280;52365;47.464;18.976;2023-04-28T01:45:15;100296.81;;;4.91;65.83
65666;BME280;52365;47.464;18.976;2023-04-28T01:45:36;100297.59;;;4.92;65.97
65666;BME280;52365;47.464;18.976;2023-04-28T01:45:57;100300.16;;;4.99;65.88
65666;BME280;52365;47.464;18.976;2023-04-28T01:46:18;100299.62;;;5.11;65.63
65666;BME280;52365;47.464;18.976;2023-04-28T01:46:39;100298.22;;;5.03;65.57
65666;BME280;52365;47.464;18.976;2023-04-28T01:47:00;100303.28;;;4.94;65.69
65666;BME280;52365;47.464;18.976;2023-04-28T01:47:21;100306.09;;;4.83;65.96
65666;BME280;52365;47.464;18.976;2023-04-28T01:47:42;100296.53;;;4.86;65.98
65666;BME280;52365;47.464;18.976;2023-04-28T01:48:03;100294.56;;;4.90;65.90
65666;BME280;52365;47.464;18.976;2023-04-28T01:48:24;100309.03;;;4.92;65.81